sensor_id;sensor_type;location;lat;lon;timestamp;pressure;altitude;pressure_sealevel;temperature;humidity
78623;BME280;67943;54.412;9.502;2023-09-08T00:01:11;102070.38;;;19.89;78.37
78623;BME280;67943;54.412;9.502;2023-09-08T00:06:14;102063.41;;;19.85;78.62
78623;BME280;67943;54.412;9.502;2023-09-08T00:11:15;102058.19;;;19.82;78.69
78623;BME280;67943;54.412;9.502;2023-09-08T00:16:17;102056.63;;;19.76;79.04
78623;BME280;67943;54.412;9.502;2023-09-08T00:21:20;102049.63;;;19.74;79.48
78623;BME280;67943;54.412;9.502;2023-09-08T00:26:21;102041.84;;;19.68;80.04
78623;BME280;67943;54.412;9.502;2023-09-08T00:31:23;102056.19;;;19.65;80.17
78623;BME280;67943;54.412;9.502;2023-09-08T00:36:25;102048.31;;;19.62;79.68
78623;BME280;67943;54.412;9.502;2023-09-08T00:41:27;102049.41;;;19.57;79.66
78623;BME280;67943;54.412;9.502;2023-09-08T00:46:28;102053.13;;;19.52;79.07
78623;BME280;67943;54.412;9.502;2023-09-08T00:51:32;102042.66;;;19.46;78.84
78623;BME280;67943;54.412;9.502;2023-09-08T00:56:36;102037.56;;;19.40;79.01
78623;BME280;67943;54.412;9.502;2023-09-08T01:01:38;102038.66;;;19.35;79.48
78623;BME280;67943;54.412;9.502;2023-09-08T01:06:41;102029.00;;;19.32;79.07
78623;BME280;67943;54.412;9.502;2023-09-08T01:11:43;102028.28;;;19.27;79.15
78623;BME280;67943;54.412;9.502;2023-09-08T01:16:45;102026.72;;;19.21;78.85
78623;BME280;67943;54.412;9.502;2023-09-08T01:22:08;102025.16;;;19.16;79.65
78623;BME280;67943;54.412;9.502;2023-09-08T01:27:15;102019.94;;;19.13;79.22
78623;BME280;67943;54.412;9.502;2023-09-08T01:32:17;102026.41;;;19.06;79.64
78623;BME280;67943;54.412;9.502;2023-09-08T01:37:22;102030.97;;;19.04;79.34
78623;BME280;67943;54.412;9.502;2023-09-08T01:42:25;102023.06;;;19.01;80.28
78623;BME280;67943;54.412;9.502;2023-09-08T01:47:29;102017.75;;;19.01;80.56
78623;BME280;67943;54.412;9.502;2023-09-08T01:52:30;102021.44;;;18.97;80.58
78623;BME280;67943;54.412;9.502;2023-09-08T01:57:33;102022.31;;;18.97;80.84
78623;BME280;67943;54.412;9.502;2023-09-08T02:02:35;102012.63;;;18.95;80.74
78623;BME280;67943;54.412;9.502;2023-09-08T02:07:36;102011.75;;;18.94;80.99
78623;BME280;67943;54.412;9.502;2023-09-08T02:12:39;102011.91;;;18.89;81.56
78623;BME280;67943;54.412;9.502;2023-09-08T02:17:40;101999.56;;;18.87;81.30
78623;BME280;67943;54.412;9.502;2023-09-08T02:22:42;102001.47;;;18.83;81.31
78623;BME280;67943;54.412;9.502;2023-09-08T02:27:45;101999.72;;;18.82;81.37
78623;BME280;67943;54.412;9.502;2023-09-08T02:32:46;101994.50;;;18.79;81.46
78623;BME280;67943;54.412;9.502;2023-09-08T02:37:48;101984.91;;;18.75;81.43
78623;BME280;67943;54.412;9.502;2023-09-08T02:42:51;101992.09;;;18.73;81.33
78623;BME280;67943;54.412;9.502;2023-09-08T02:47:52;101979.78;;;18.69;81.26
78623;BME280;67943;54.412;9.502;2023-09-08T02:52:54;101985.34;;;18.63;81.62
78623;BME280;67943;54.412;9.502;2023-09-08T02:57:57;101982.78;;;18.60;81.65
78623;BME280;67943;54.412;9.502;2023-09-08T03:02:58;101979.47;;;18.52;82.27
78623;BME280;67943;54.412;9.502;2023-09-08T03:08:00;101967.19;;;18.48;82.20
78623;BME280;67943;54.412;9.502;2023-09-08T03:13:03;101970.81;;;18.47;82.13
78623;BME280;67943;54.412;9.502;2023-09-08T03:18:05;101962.09;;;18.42;81.84
78623;BME280;67943;54.412;9.502;2023-09-08T03:23:06;101958.72;;;18.37;82.26
78623;BME280;67943;54.412;9.502;2023-09-08T03:28:09;101955.13;;;18.38;82.04
78623;BME280;67943;54.412;9.502;2023-09-08T03:33:11;101951.72;;;18.34;81.76
78623;BME280;67943;54.412;9.502;2023-09-08T03:38:12;101951.88;;;18.30;81.15
78623;BME280;67943;54.412;9.502;2023-09-08T03:43:15;101943.16;;;18.25;80.60
78623;BME280;67943;54.412;9.502;2023-09-08T03:48:17;101946.06;;;18.18;81.01
78623;BME280;67943;54.412;9.502;2023-09-08T03:53:18;101932.94;;;18.12;81.46
78623;BME280;67943;54.412;9.502;2023-09-08T03:58:21;101937.56;;;18.07;81.15
78623;BME280;67943;54.412;9.502;2023-09-08T04:03:22;101921.03;;;17.98;81.32
78623;BME280;67943;54.412;9.502;2023-09-08T04:08:24;101923.72;;;17.96;81.90
78623;BME280;67943;54.412;9.502;2023-09-08T04:13:27;101925.56;;;17.94;82.01
78623;BME280;67943;54.412;9.502;2023-09-08T04:18:28;101928.34;;;17.91;82.04
78623;BME280;67943;54.412;9.502;2023-09-08T04:23:30;101926.63;;;17.90;81.32
78623;BME280;67943;54.412;9.502;2023-09-08T04:28:33;101920.47;;;17.88;81.08
78623;BME280;67943;54.412;9.502;2023-09-08T04:33:34;101918.03;;;17.82;81.52
78623;BME280;67943;54.412;9.502;2023-09-08T04:38:36;101917.00;;;17.86;81.03
78623;BME280;67943;54.412;9.502;2023-09-08T04:43:38;101919.75;;;17.83;80.83
78623;BME280;67943;54.412;9.502;2023-09-08T04:48:40;101915.47;;;17.79;81.05
78623;BME280;67943;54.412;9.502;2023-09-08T04:53:42;101916.34;;;17.79;80.83
78623;BME280;67943;54.412;9.502;2023-09-08T04:58:45;101909.22;;;17.80;80.87
78623;BME280;67943;54.412;9.502;2023-09-08T05:03:46;101904.72;;;17.82;80.74
78623;BME280;67943;54.412;9.502;2023-09-08T05:08:48;101909.22;;;17.80;80.18
78623;BME280;67943;54.412;9.502;2023-09-08T05:13:51;101924.38;;;17.78;80.31
78623;BME280;67943;54.412;9.502;2023-09-08T05:18:52;101922.72;;;17.74;80.08
78623;BME280;67943;54.412;9.502;2023-09-08T05:23:54;101923.69;;;17.71;80.50
78623;BME280;67943;54.412;9.502;2023-09-08T05:28:57;101928.06;;;17.74;81.12
78623;BME280;67943;54.412;9.502;2023-09-08T05:33:59;101925.09;;;17.83;81.00
78623;BME280;67943;54.412;9.502;2023-09-08T05:39:00;101925.69;;;17.91;80.80
78623;BME280;67943;54.412;9.502;2023-09-08T05:44:04;101921.84;;;18.00;80.96
78623;BME280;67943;54.412;9.502;2023-09-08T05:49:05;101911.69;;;18.11;80.80
78623;BME280;67943;54.412;9.502;2023-09-08T05:54:07;101917.53;;;18.20;80.79
78623;BME280;67943;54.412;9.502;2023-09-08T05:59:10;101915.38;;;18.32;80.57
78623;BME280;67943;54.412;9.502;2023-09-08T06:04:12;101932.69;;;18.45;80.63
78623;BME280;67943;54.412;9.502;2023-09-08T06:09:13;101920.63;;;18.58;80.18
78623;BME280;67943;54.412;9.502;2023-09-08T06:14:18;101928.22;;;18.70;80.12
78623;BME280;67943;54.412;9.502;2023-09-08T06:19:19;101915.31;;;18.81;79.71
78623;BME280;67943;54.412;9.502;2023-09-08T06:24:21;101920.09;;;18.97;79.28
78623;BME280;67943;54.412;9.502;2023-09-08T06:29:23;101925.69;;;19.12;78.41
78623;BME280;67943;54.412;9.502;2023-09-08T06:34:25;101927.69;;;19.29;77.68
78623;BME280;67943;54.412;9.502;2023-09-08T06:39:27;101926.84;;;19.50;76.57
78623;BME280;67943;54.412;9.502;2023-09-08T06:44:29;101922.34;;;19.73;75.01
78623;BME280;67943;54.412;9.502;2023-09-08T06:49:31;101914.50;;;19.90;74.56
78623;BME280;67943;54.412;9.502;2023-09-08T06:54:32;101915.44;;;20.09;73.26
78623;BME280;67943;54.412;9.502;2023-09-08T06:59:35;101912.03;;;20.26;72.17
78623;BME280;67943;54.412;9.502;2023-09-08T07:04:37;101905.59;;;20.50;70.55
78623;BME280;67943;54.412;9.502;2023-09-08T07:09:39;101919.69;;;20.74;68.79
78623;BME280;67943;54.412;9.502;2023-09-08T07:14:42;101920.13;;;21.03;67.34
78623;BME280;67943;54.412;9.502;2023-09-08T07:19:43;101916.59;;;21.21;66.24
78623;BME280;67943;54.412;9.502;2023-09-08T07:24:45;101919.50;;;21.35;66.84
78623;BME280;67943;54.412;9.502;2023-09-08T07:29:47;101911.09;;;21.60;65.80
78623;BME280;67943;54.412;9.502;2023-09-08T07:34:50;101904.72;;;21.80;64.84
78623;BME280;67943;54.412;9.502;2023-09-08T07:39:55;101907.91;;;22.05;63.09
78623;BME280;67943;54.412;9.502;2023-09-08T07:44:57;101900.91;;;22.20;63.98
78623;BME280;67943;54.412;9.502;2023-09-08T07:50:18;101904.63;;;22.50;62.05
78623;BME280;67943;54.412;9.502;2023-09-08T07:55:20;101904.66;;;22.66;61.71
78623;BME280;67943;54.412;9.502;2023-09-08T08:00:25;101900.63;;;22.90;61.44
78623;BME280;67943;54.412;9.502;2023-09-08T08:05:26;101884.63;;;23.05;61.28
78623;BME280;67943;54.412;9.502;2023-09-08T08:10:28;101894.66;;;23.33;60.62
78623;BME280;67943;54.412;9.502;2023-09-08T08:15:39;101892.91;;;23.63;59.10
78623;BME280;67943;54.412;9.502;2023-09-08T08:20:41;101889.56;;;23.74;58.58
78623;BME280;67943;54.412;9.502;2023-09-08T08:25:42;101886.88;;;24.04;58.40
78623;BME280;67943;54.412;9.502;2023-09-08T08:30:45;101887.03;;;24.45;57.89
78623;BME280;67943;54.412;9.502;2023-09-08T08:35:50;101888.94;;;25.00;55.56
78623;BME280;67943;54.412;9.502;2023-09-08T08:40:52;101869.63;;;25.74;53.04
78623;BME280;67943;54.412;9.502;2023-09-08T08:45:56;101866.34;;;26.34;51.73
78623;BME280;67943;54.412;9.502;2023-09-08T08:50:59;101860.31;;;27.05;49.34
78623;BME280;67943;54.412;9.502;2023-09-08T08:56:01;101848.63;;;27.87;47.80
78623;BME280;67943;54.412;9.502;2023-09-08T09:01:06;101853.97;;;29.00;44.19
78623;BME280;67943;54.412;9.502;2023-09-08T09:06:09;101847.47;;;29.67;42.97
78623;BME280;67943;54.412;9.502;2023-09-08T09:11:11;101845.47;;;30.31;41.76
78623;BME280;67943;54.412;9.502;2023-09-08T09:16:14;101840.47;;;30.67;41.31
78623;BME280;67943;54.412;9.502;2023-09-08T09:21:15;101832.75;;;31.31;39.57
78623;BME280;67943;54.412;9.502;2023-09-08T09:26:23;101838.94;;;31.72;38.93
78623;BME280;67943;54.412;9.502;2023-09-08T09:31:26;101847.41;;;32.62;38.76
78623;BME280;67943;54.412;9.502;2023-09-08T09:36:28;101845.13;;;33.66;35.43
78623;BME280;67943;54.412;9.502;2023-09-08T09:41:29;101852.28;;;33.67;34.18
78623;BME280;67943;54.412;9.502;2023-09-08T09:46:33;101845.38;;;34.50;33.65
78623;BME280;67943;54.412;9.502;2023-09-08T09:51:40;101840.50;;;35.20;32.28
78623;BME280;67943;54.412;9.502;2023-09-08T09:56:42;101841.88;;;35.97;30.30
78623;BME280;67943;54.412;9.502;2023-09-08T10:01:45;101834.63;;;36.37;29.73
78623;BME280;67943;54.412;9.502;2023-09-08T10:06:47;101831.56;;;37.02;28.65
78623;BME280;67943;54.412;9.502;2023-09-08T10:11:50;101835.13;;;37.79;26.73
78623;BME280;67943;54.412;9.502;2023-09-08T10:16:54;101829.78;;;38.30;27.05
78623;BME280;67943;54.412;9.502;2023-09-08T10:22:00;101823.59;;;39.29;25.42
78623;BME280;67943;54.412;9.502;2023-09-08T10:27:08;101806.28;;;40.54;24.42
78623;BME280;67943;54.412;9.502;2023-09-08T10:32:11;101812.81;;;40.94;23.20
78623;BME280;67943;54.412;9.502;2023-09-08T10:37:20;101805.25;;;41.35;22.77
78623;BME280;67943;54.412;9.502;2023-09-08T10:42:23;101805.25;;;42.01;22.50
78623;BME280;67943;54.412;9.502;2023-09-08T10:47:31;101801.84;;;42.64;22.06
78623;BME280;67943;54.412;9.502;2023-09-08T10:52:34;101803.63;;;43.96;20.68
78623;BME280;67943;54.412;9.502;2023-09-08T10:57:36;101801.00;;;44.74;19.38
78623;BME280;67943;54.412;9.502;2023-09-08T11:02:40;101794.88;;;44.54;18.64
78623;BME280;67943;54.412;9.502;2023-09-08T11:07:43;101794.81;;;44.42;19.16
78623;BME280;67943;54.412;9.502;2023-09-08T11:12:45;101790.38;;;44.71;19.56
78623;BME280;67943;54.412;9.502;2023-09-08T11:17:50;101784.44;;;44.97;18.41
78623;BME280;67943;54.412;9.502;2023-09-08T11:22:52;101797.88;;;45.77;18.05
78623;BME280;67943;54.412;9.502;2023-09-08T11:27:54;101790.47;;;45.48;18.05
78623;BME280;67943;54.412;9.502;2023-09-08T11:32:57;101776.69;;;46.11;18.04
78623;BME280;67943;54.412;9.502;2023-09-08T11:37:59;101781.00;;;46.59;17.57
78623;BME280;67943;54.412;9.502;2023-09-08T11:43:05;101770.84;;;47.10;16.62
78623;BME280;67943;54.412;9.502;2023-09-08T11:48:09;101767.06;;;46.30;17.05
78623;BME280;67943;54.412;9.502;2023-09-08T11:53:11;101759.19;;;44.39;18.71
78623;BME280;67943;54.412;9.502;2023-09-08T11:58:12;101755.53;;;45.75;17.85
78623;BME280;67943;54.412;9.502;2023-09-08T12:03:16;101752.72;;;46.50;16.78
78623;BME280;67943;54.412;9.502;2023-09-08T12:08:18;101759.31;;;46.89;17.16
78623;BME280;67943;54.412;9.502;2023-09-08T12:13:20;101750.22;;;47.61;16.28
78623;BME280;67943;54.412;9.502;2023-09-08T12:18:39;101748.53;;;47.60;16.41
78623;BME280;67943;54.412;9.502;2023-09-08T12:23:47;101746.47;;;47.72;16.60
78623;BME280;67943;54.412;9.502;2023-09-08T12:28:50;101736.34;;;47.66;16.49
78623;BME280;67943;54.412;9.502;2023-09-08T12:33:53;101719.91;;;47.86;16.40
78623;BME280;67943;54.412;9.502;2023-09-08T12:38:55;101708.53;;;48.63;15.89
78623;BME280;67943;54.412;9.502;2023-09-08T12:43:56;101715.69;;;48.05;15.70
78623;BME280;67943;54.412;9.502;2023-09-08T12:48:59;101712.41;;;47.70;16.28
78623;BME280;67943;54.412;9.502;2023-09-08T12:54:00;101696.66;;;47.59;16.75
78623;BME280;67943;54.412;9.502;2023-09-08T12:59:02;101689.94;;;46.71;17.02
78623;BME280;67943;54.412;9.502;2023-09-08T13:04:05;101695.34;;;45.34;17.63
78623;BME280;67943;54.412;9.502;2023-09-08T13:09:07;101683.78;;;44.12;18.77
78623;BME280;67943;54.412;9.502;2023-09-08T13:14:09;101683.69;;;40.69;22.66
78623;BME280;67943;54.412;9.502;2023-09-08T13:19:12;101672.59;;;38.83;24.81
78623;BME280;67943;54.412;9.502;2023-09-08T13:24:13;101682.19;;;37.42;26.48
78623;BME280;67943;54.412;9.502;2023-09-08T13:29:16;101673.94;;;36.36;27.38
78623;BME280;67943;54.412;9.502;2023-09-08T13:34:20;101673.59;;;35.36;28.89
78623;BME280;67943;54.412;9.502;2023-09-08T13:39:22;101658.91;;;34.89;29.35
78623;BME280;67943;54.412;9.502;2023-09-08T13:44:24;101661.59;;;34.64;30.50
78623;BME280;67943;54.412;9.502;2023-09-08T13:49:27;101664.31;;;34.56;30.43
78623;BME280;67943;54.412;9.502;2023-09-08T13:54:28;101661.00;;;34.28;30.53
78623;BME280;67943;54.412;9.502;2023-09-08T13:59:30;101660.66;;;33.89;31.66
78623;BME280;67943;54.412;9.502;2023-09-08T14:04:33;101648.00;;;33.54;32.40
78623;BME280;67943;54.412;9.502;2023-09-08T14:09:35;101647.22;;;33.62;31.64
78623;BME280;67943;54.412;9.502;2023-09-08T14:14:37;101651.47;;;33.64;32.49
78623;BME280;67943;54.412;9.502;2023-09-08T14:19:40;101642.38;;;33.47;32.38
78623;BME280;67943;54.412;9.502;2023-09-08T14:24:41;101644.81;;;33.33;31.78
78623;BME280;67943;54.412;9.502;2023-09-08T14:29:43;101639.09;;;33.18;32.55
78623;BME280;67943;54.412;9.502;2023-09-08T14:34:46;101623.47;;;33.28;31.80
78623;BME280;67943;54.412;9.502;2023-09-08T14:39:47;101628.19;;;33.26;33.15
78623;BME280;67943;54.412;9.502;2023-09-08T14:44:49;101622.06;;;33.24;33.27
78623;BME280;67943;54.412;9.502;2023-09-08T14:49:53;101626.16;;;33.20;31.73
78623;BME280;67943;54.412;9.502;2023-09-08T14:54:54;101629.22;;;33.25;31.74
78623;BME280;67943;54.412;9.502;2023-09-08T14:59:56;101631.78;;;33.01;31.98
78623;BME280;67943;54.412;9.502;2023-09-08T15:04:59;101626.28;;;32.57;33.33
78623;BME280;67943;54.412;9.502;2023-09-08T15:10:00;101635.88;;;32.16;33.66
78623;BME280;67943;54.412;9.502;2023-09-08T15:15:05;101627.53;;;32.27;34.78
78623;BME280;67943;54.412;9.502;2023-09-08T15:20:09;101623.09;;;32.44;34.00
78623;BME280;67943;54.412;9.502;2023-09-08T15:25:10;101625.72;;;32.36;34.76
78623;BME280;67943;54.412;9.502;2023-09-08T15:30:13;101625.66;;;32.45;33.84
78623;BME280;67943;54.412;9.502;2023-09-08T15:35:16;101622.38;;;32.42;34.09
78623;BME280;67943;54.412;9.502;2023-09-08T15:40:18;101621.31;;;32.52;34.75
78623;BME280;67943;54.412;9.502;2023-09-08T15:45:19;101611.19;;;32.63;34.13
78623;BME280;67943;54.412;9.502;2023-09-08T15:50:22;101611.50;;;32.60;34.58
78623;BME280;67943;54.412;9.502;2023-09-08T15:55:24;101613.75;;;32.46;34.25
78623;BME280;67943;54.412;9.502;2023-09-08T16:00:25;101618.44;;;32.09;34.67
78623;BME280;67943;54.412;9.502;2023-09-08T16:05:28;101607.06;;;31.96;36.35
78623;BME280;67943;54.412;9.502;2023-09-08T16:10:30;101608.53;;;31.90;35.81
78623;BME280;67943;54.412;9.502;2023-09-08T16:15:31;101609.97;;;31.84;35.90
78623;BME280;67943;54.412;9.502;2023-09-08T16:20:34;101607.00;;;31.78;36.45
78623;BME280;67943;54.412;9.502;2023-09-08T16:25:36;101605.91;;;31.71;35.81
78623;BME280;67943;54.412;9.502;2023-09-08T16:30:37;101599.22;;;31.55;36.84
78623;BME280;67943;54.412;9.502;2023-09-08T16:35:40;101599.84;;;31.40;37.25
78623;BME280;67943;54.412;9.502;2023-09-08T16:40:43;101601.03;;;31.28;38.02
78623;BME280;67943;54.412;9.502;2023-09-08T16:45:45;101598.78;;;31.04;39.56
78623;BME280;67943;54.412;9.502;2023-09-08T16:50:49;101599.69;;;30.75;39.25
78623;BME280;67943;54.412;9.502;2023-09-08T16:55:50;101597.00;;;30.56;39.83
78623;BME280;67943;54.412;9.502;2023-09-08T17:00:52;101601.66;;;30.44;41.13
78623;BME280;67943;54.412;9.502;2023-09-08T17:05:55;101609.09;;;30.23;41.60
78623;BME280;67943;54.412;9.502;2023-09-08T17:11:02;101600.34;;;30.00;42.92
78623;BME280;67943;54.412;9.502;2023-09-08T17:16:04;101600.50;;;29.78;43.89
78623;BME280;67943;54.412;9.502;2023-09-08T17:21:07;101599.09;;;29.74;43.24
78623;BME280;67943;54.412;9.502;2023-09-08T17:26:09;101593.03;;;29.61;44.78
78623;BME280;67943;54.412;9.502;2023-09-08T17:31:10;101608.94;;;29.14;47.04
78623;BME280;67943;54.412;9.502;2023-09-08T17:36:13;101603.38;;;28.63;48.72
78623;BME280;67943;54.412;9.502;2023-09-08T17:41:15;101611.78;;;28.16;50.11
78623;BME280;67943;54.412;9.502;2023-09-08T17:46:16;101609.88;;;27.74;51.11
78623;BME280;67943;54.412;9.502;2023-09-08T17:51:19;101612.44;;;27.42;53.07
78623;BME280;67943;54.412;9.502;2023-09-08T17:56:21;101614.97;;;27.10;53.20
78623;BME280;67943;54.412;9.502;2023-09-08T18:01:23;101622.00;;;26.88;53.80
78623;BME280;67943;54.412;9.502;2023-09-08T18:06:25;101621.94;;;26.66;54.82
78623;BME280;67943;54.412;9.502;2023-09-08T18:11:27;101625.75;;;26.40;56.26
78623;BME280;67943;54.412;9.502;2023-09-08T18:16:29;101629.28;;;26.16;56.54
78623;BME280;67943;54.412;9.502;2023-09-08T18:21:32;101619.59;;;26.01;56.91
78623;BME280;67943;54.412;9.502;2023-09-08T18:26:33;101618.28;;;26.07;57.88
78623;BME280;67943;54.412;9.502;2023-09-08T18:31:35;101616.41;;;26.20;56.95
78623;BME280;67943;54.412;9.502;2023-09-08T18:36:38;101615.13;;;25.89;57.01
78623;BME280;67943;54.412;9.502;2023-09-08T18:41:39;101619.44;;;25.53;58.07
78623;BME280;67943;54.412;9.502;2023-09-08T18:46:41;101618.94;;;25.36;59.24
78623;BME280;67943;54.412;9.502;2023-09-08T18:51:44;101627.31;;;25.18;59.23
78623;BME280;67943;54.412;9.502;2023-09-08T18:56:45;101627.16;;;24.95;59.72
78623;BME280;67943;54.412;9.502;2023-09-08T19:01:47;101625.94;;;24.73;60.22
78623;BME280;67943;54.412;9.502;2023-09-08T19:06:49;101628.38;;;24.51;60.84
78623;BME280;67943;54.412;9.502;2023-09-08T19:11:51;101630.81;;;24.27;61.70
78623;BME280;67943;54.412;9.502;2023-09-08T19:16:52;101630.75;;;24.14;62.73
78623;BME280;67943;54.412;9.502;2023-09-08T19:21:55;101640.91;;;24.23;62.39
78623;BME280;67943;54.412;9.502;2023-09-08T19:26:57;101637.31;;;24.25;62.22
78623;BME280;67943;54.412;9.502;2023-09-08T19:31:58;101630.47;;;24.19;62.40
78623;BME280;67943;54.412;9.502;2023-09-08T19:37:01;101620.97;;;24.13;61.75
78623;BME280;67943;54.412;9.502;2023-09-08T19:42:03;101631.72;;;23.99;62.40
78623;BME280;67943;54.412;9.502;2023-09-08T19:47:05;101639.16;;;23.81;62.63
78623;BME280;67943;54.412;9.502;2023-09-08T19:52:08;101623.16;;;23.66;63.26
78623;BME280;67943;54.412;9.502;2023-09-08T19:57:10;101623.50;;;23.45;63.34
78623;BME280;67943;54.412;9.502;2023-09-08T20:02:11;101633.97;;;23.36;63.71
78623;BME280;67943;54.412;9.502;2023-09-08T20:07:14;101633.47;;;23.29;63.45
78623;BME280;67943;54.412;9.502;2023-09-08T20:12:16;101624.47;;;23.30;64.04
78623;BME280;67943;54.412;9.502;2023-09-08T20:17:17;101625.31;;;23.31;63.76
78623;BME280;67943;54.412;9.502;2023-09-08T20:22:20;101619.56;;;23.22;63.89
78623;BME280;67943;54.412;9.502;2023-09-08T20:27:21;101618.50;;;23.25;63.96
78623;BME280;67943;54.412;9.502;2023-09-08T20:32:23;101611.09;;;23.14;63.27
78623;BME280;67943;54.412;9.502;2023-09-08T20:37:26;101612.16;;;22.98;64.55
78623;BME280;67943;54.412;9.502;2023-09-08T20:42:28;101610.72;;;23.06;63.81
78623;BME280;67943;54.412;9.502;2023-09-08T20:47:29;101618.47;;;22.97;64.19
78623;BME280;67943;54.412;9.502;2023-09-08T20:52:32;101614.31;;;22.91;63.52
78623;BME280;67943;54.412;9.502;2023-09-08T20:57:33;101614.91;;;22.66;64.11
78623;BME280;67943;54.412;9.502;2023-09-08T21:02:35;101616.50;;;22.39;65.08
78623;BME280;67943;54.412;9.502;2023-09-08T21:07:38;101614.13;;;22.18;65.32
78623;BME280;67943;54.412;9.502;2023-09-08T21:12:39;101607.16;;;21.99;66.12
78623;BME280;67943;54.412;9.502;2023-09-08T21:17:41;101595.69;;;21.81;66.38
78623;BME280;67943;54.412;9.502;2023-09-08T21:22:44;101601.69;;;21.69;66.59
78623;BME280;67943;54.412;9.502;2023-09-08T21:27:45;101595.22;;;21.57;66.84
78623;BME280;67943;54.412;9.502;2023-09-08T21:32:47;101599.59;;;21.42;67.04
78623;BME280;67943;54.412;9.502;2023-09-08T21:37:50;101589.97;;;21.38;66.84
78623;BME280;67943;54.412;9.502;2023-09-08T21:42:52;101593.97;;;21.31;66.89
78623;BME280;67943;54.412;9.502;2023-09-08T21:47:53;101583.25;;;21.31;66.73
78623;BME280;67943;54.412;9.502;2023-09-08T21:52:57;101589.03;;;21.39;66.72
78623;BME280;67943;54.412;9.502;2023-09-08T21:57:59;101576.56;;;21.55;66.48
78623;BME280;67943;54.412;9.502;2023-09-08T22:03:01;101582.16;;;21.67;66.08
78623;BME280;67943;54.412;9.502;2023-09-08T22:08:04;101577.44;;;21.87;64.88
78623;BME280;67943;54.412;9.502;2023-09-08T22:13:07;101582.09;;;22.00;63.73
78623;BME280;67943;54.412;9.502;2023-09-08T22:18:08;101576.16;;;22.10;63.04
78623;BME280;67943;54.412;9.502;2023-09-08T22:23:11;101580.41;;;22.14;62.30
78623;BME280;67943;54.412;9.502;2023-09-08T22:28:13;101573.13;;;22.16;61.82
78623;BME280;67943;54.412;9.502;2023-09-08T22:33:14;101578.50;;;22.16;61.93
78623;BME280;67943;54.412;9.502;2023-09-08T22:38:17;101583.94;;;22.15;61.72
78623;BME280;67943;54.412;9.502;2023-09-08T22:43:19;101577.91;;;22.11;61.78
78623;BME280;67943;54.412;9.502;2023-09-08T22:48:22;101569.34;;;22.05;61.87
78623;BME280;67943;54.412;9.502;2023-09-08T22:53:25;101580.28;;;22.00;61.98
78623;BME280;67943;54.412;9.502;2023-09-08T22:58:36;101576.25;;;21.93;62.10
78623;BME280;67943;54.412;9.502;2023-09-08T23:03:38;101567.75;;;21.85;62.16
78623;BME280;67943;54.412;9.502;2023-09-08T23:08:41;101565.69;;;21.74;62.51
78623;BME280;67943;54.412;9.502;2023-09-08T23:13:42;101574.25;;;21.65;62.91
78623;BME280;67943;54.412;9.502;2023-09-08T23:18:44;101571.03;;;21.59;62.77
78623;BME280;67943;54.412;9.502;2023-09-08T23:23:46;101574.91;;;21.53;62.81
78623;BME280;67943;54.412;9.502;2023-09-08T23:28:49;101562.72;;;21.47;62.97
78623;BME280;67943;54.412;9.502;2023-09-08T23:33:55;101570.13;;;21.42;62.98
78623;BME280;67943;54.412;9.502;2023-09-08T23:38:57;101570.50;;;21.36;63.26
78623;BME280;67943;54.412;9.502;2023-09-08T23:43:59;101559.16;;;21.31;63.22
78623;BME280;67943;54.412;9.502;2023-09-08T23:49:00;101560.44;;;21.24;63.07
78623;BME280;67943;54.412;9.502;2023-09-08T23:54:04;101561.59;;;21.18;63.29
78623;BME280;67943;54.412;9.502;2023-09-08T23:59:05;101557.59;;;21.10;63.30
